Time;durP1;ratioP1;P1;durP2;ratioP2;P2;SDS_P1;SDS_P2;PMS_P1;PMS_P2;Temp;Humidity;BMP_temperature;BMP_pressure;BME280_temperature;BME280_humidity;BME280_pressure;Samples;Min_cycle;Max_cycle;Signal;HPM_P1;HPM_P2
2023/04/06 00:02:45;;;;;;;;;;;;;;;3.03;73.08;101732.31;10331999;28;20432;-63
2023/04/06 00:07:47;;;;;;;;;;;;;;;2.88;74.01;101739.34;10333826;28;19933;-62
2023/04/06 00:12:49;;;;;;;;;;;;;;;2.84;75.13;101732.50;10333062;28;19926;-63
2023/04/06 00:17:52;;;;;;;;;;;;;;;3.30;73.80;101721.63;10334540;28;19929;-63
2023/04/06 00:22:54;;;;;;;;;;;;;;;3.04;72.39;101721.91;10333574;28;19930;-62
2023/04/06 00:27:56;;;;;;;;;;;;;;;2.97;71.44;101717.69;10332958;28;19925;-63
2023/04/06 00:32:59;;;;;;;;;;;;;;;2.84;71.69;101710.94;10332996;28;19926;-62
2023/04/06 00:38:01;;;;;;;;;;;;;;;2.54;71.16;101706.06;10334016;28;19930;-63
2023/04/06 00:43:03;;;;;;;;;;;;;;;2.75;70.57;101701.53;10333308;28;20432;-63
2023/04/06 00:48:06;;;;;;;;;;;;;;;2.72;70.13;101688.63;10333513;28;19926;-62
2023/04/06 00:53:09;;;;;;;;;;;;;;;2.85;72.06;101686.78;10332484;28;19926;-62
2023/04/06 00:58:11;;;;;;;;;;;;;;;2.66;70.84;101688.72;10332963;28;19925;-62
2023/04/06 01:03:13;;;;;;;;;;;;;;;2.84;69.93;101685.94;10338575;28;19930;-63
2023/04/06 01:08:15;;;;;;;;;;;;;;;2.77;69.88;101676.53;10338307;28;20309;-62
2023/04/06 01:13:18;;;;;;;;;;;;;;;2.78;70.38;101673.91;10339265;28;20313;-63
2023/04/06 01:18:25;;;;;;;;;;;;;;;2.84;69.97;101672.13;10340369;28;19972;-63
2023/04/06 01:23:27;;;;;;;;;;;;;;;2.76;70.26;101667.91;10322986;28;19926;-63
2023/04/06 01:28:30;;;;;;;;;;;;;;;2.96;68.88;101659.94;10338670;28;19929;-63
2023/04/06 01:33:32;;;;;;;;;;;;;;;2.76;69.21;101659.31;10338264;28;19926;-63
2023/04/06 01:38:34;;;;;;;;;;;;;;;2.77;69.37;101655.81;10339612;28;19933;-63
2023/04/06 01:43:37;;;;;;;;;;;;;;;2.85;69.07;101648.84;10338411;28;19926;-62
2023/04/06 01:48:39;;;;;;;;;;;;;;;3.22;67.82;101643.22;10339153;28;19972;-62
2023/04/06 01:53:41;;;;;;;;;;;;;;;2.86;69.04;101636.75;10337257;28;19926;-62
2023/04/06 01:58:44;;;;;;;;;;;;;;;2.74;70.09;101637.75;10338235;28;20282;-63
2023/04/06 02:03:46;;;;;;;;;;;;;;;2.72;70.13;101639.50;10337360;28;19932;-62
2023/04/06 02:08:48;;;;;;;;;;;;;;;2.78;69.14;101623.94;10337824;28;20377;-63
2023/04/06 02:13:50;;;;;;;;;;;;;;;2.85;69.00;101622.97;10336347;28;20389;-63
2023/04/06 02:18:53;;;;;;;;;;;;;;;2.93;70.01;101622.91;10337489;28;19925;-63
2023/04/06 02:23:55;;;;;;;;;;;;;;;2.77;69.74;101610.16;10336644;28;19966;-63
2023/04/06 02:28:57;;;;;;;;;;;;;;;2.67;70.29;101611.09;10336625;28;19926;-63
2023/04/06 02:34:00;;;;;;;;;;;;;;;2.92;69.13;101605.66;10337208;28;19926;-63
2023/04/06 02:39:03;;;;;;;;;;;;;;;2.84;69.80;101594.53;10320050;28;19930;-63
2023/04/06 02:44:08;;;;;;;;;;;;;;;2.89;71.08;101597.91;10335737;28;20303;-63
2023/04/06 02:49:10;;;;;;;;;;;;;;;2.74;71.30;101592.09;10318534;28;19959;-63
2023/04/06 02:54:13;;;;;;;;;;;;;;;2.73;71.85;101577.44;10335917;28;19926;-63
2023/04/06 02:59:15;;;;;;;;;;;;;;;3.07;69.50;101587.34;10335803;28;20325;-63
2023/04/06 03:04:17;;;;;;;;;;;;;;;3.05;70.09;101573.56;10336339;28;19926;-63
2023/04/06 03:09:19;;;;;;;;;;;;;;;3.04;70.11;101577.03;10334627;28;19926;-63
2023/04/06 03:14:22;;;;;;;;;;;;;;;3.17;70.06;101569.97;10335255;28;20344;-63
2023/04/06 03:19:24;;;;;;;;;;;;;;;3.29;70.61;101571.50;10335110;28;19937;-63
2023/04/06 03:24:26;;;;;;;;;;;;;;;3.11;70.30;101565.72;10335339;28;19926;-63
2023/04/06 03:29:28;;;;;;;;;;;;;;;3.16;72.25;101569.09;10334848;28;19933;-63
2023/04/06 03:34:31;;;;;;;;;;;;;;;3.29;71.36;101561.16;10334509;28;19933;-63
2023/04/06 03:39:33;;;;;;;;;;;;;;;3.32;70.58;101563.69;10335269;28;19925;-63
2023/04/06 03:44:35;;;;;;;;;;;;;;;3.37;70.71;101550.69;10333848;28;20432;-63
2023/04/06 03:49:37;;;;;;;;;;;;;;;3.41;71.15;101557.53;10334231;28;19972;-63
2023/04/06 03:54:41;;;;;;;;;;;;;;;3.45;70.34;101551.44;10334514;28;19925;-63
2023/04/06 03:59:43;;;;;;;;;;;;;;;3.55;69.38;101545.22;10334022;28;19989;-63
2023/04/06 04:04:46;;;;;;;;;;;;;;;3.63;69.10;101545.09;10334582;28;19926;-63
2023/04/06 04:09:48;;;;;;;;;;;;;;;3.46;70.49;101547.94;10333197;28;19926;-63
2023/04/06 04:14:50;;;;;;;;;;;;;;;3.73;69.03;101554.41;10334395;28;19925;-63
2023/04/06 04:19:52;;;;;;;;;;;;;;;3.76;68.18;101556.13;10334188;28;19933;-64
2023/04/06 04:24:54;;;;;;;;;;;;;;;3.54;69.75;101553.88;10333072;28;20305;-63
2023/04/06 04:29:57;;;;;;;;;;;;;;;3.74;69.29;101557.88;10333129;28;19926;-63
2023/04/06 04:34:59;;;;;;;;;;;;;;;3.70;68.40;101554.50;10300971;28;20373;-63
2023/04/06 04:40:02;;;;;;;;;;;;;;;3.69;67.58;101551.03;10342017;28;19981;-63
2023/04/06 04:45:04;;;;;;;;;;;;;;;3.57;68.74;101558.16;10347042;23;19926;-65
2023/04/06 04:50:07;;;;;;;;;;;;;;;3.68;68.35;101557.09;10307215;28;19929;-65
2023/04/06 04:55:09;;;;;;;;;;;;;;;3.43;69.83;101551.47;10322818;28;19926;-65
2023/04/06 05:00:11;;;;;;;;;;;;;;;3.37;72.77;101548.13;10340478;28;19988;-65
2023/04/06 05:05:14;;;;;;;;;;;;;;;3.46;72.01;101545.38;10340274;28;19930;-65
2023/04/06 05:10:16;;;;;;;;;;;;;;;3.62;72.30;101548.56;10329725;28;19926;-65
2023/04/06 05:15:18;;;;;;;;;;;;;;;3.57;71.08;101546.06;10299593;28;19989;-65
2023/04/06 05:20:20;;;;;;;;;;;;;;;3.63;69.85;101539.91;10311742;28;20270;-65
2023/04/06 05:25:23;;;;;;;;;;;;;;;3.71;67.97;101538.06;10339548;28;19926;-65
2023/04/06 05:30:25;;;;;;;;;;;;;;;4.00;67.14;101539.28;10338038;28;20400;-65
2023/04/06 05:35:27;;;;;;;;;;;;;;;4.05;66.90;101540.03;10321920;28;19929;-65
2023/04/06 05:40:30;;;;;;;;;;;;;;;4.13;66.51;101532.97;10338860;28;20266;-65
2023/04/06 05:45:32;;;;;;;;;;;;;;;4.35;65.00;101529.97;10321100;28;19926;-65
2023/04/06 05:50:34;;;;;;;;;;;;;;;4.32;65.22;101535.22;10336739;28;19926;-65
2023/04/06 05:55:37;;;;;;;;;;;;;;;4.39;64.44;101529.91;10338422;28;20325;-65
2023/04/06 06:00:39;;;;;;;;;;;;;;;4.59;63.64;101524.31;10328778;28;19947;-65
2023/04/06 06:05:41;;;;;;;;;;;;;;;4.69;63.12;101522.38;10330338;28;20369;-65
2023/04/06 06:10:43;;;;;;;;;;;;;;;4.69;62.83;101527.56;10311518;28;19979;-66
2023/04/06 06:15:46;;;;;;;;;;;;;;;5.00;62.61;101526.88;10337687;28;19926;-65
2023/04/06 06:20:48;;;;;;;;;;;;;;;5.12;61.98;101517.97;10331608;28;19997;-65
2023/04/06 06:25:50;;;;;;;;;;;;;;;5.26;62.18;101520.25;10334760;28;19925;-65
2023/04/06 06:30:52;;;;;;;;;;;;;;;5.48;60.96;101525.75;10335828;28;19953;-65
2023/04/06 06:35:55;;;;;;;;;;;;;;;5.89;60.78;101519.53;10333545;28;19934;-65
2023/04/06 06:40:57;;;;;;;;;;;;;;;6.05;60.82;101520.03;10334864;28;19926;-65
2023/04/06 06:46:00;;;;;;;;;;;;;;;5.99;60.45;101530.56;10329396;28;19973;-66
2023/04/06 06:51:02;;;;;;;;;;;;;;;6.19;60.53;101517.03;10299425;28;19940;-66
2023/04/06 06:56:04;;;;;;;;;;;;;;;6.46;59.93;101523.19;10292251;28;19936;-65
2023/04/06 07:01:07;;;;;;;;;;;;;;;6.37;60.12;101515.69;10319153;28;19925;-65
2023/04/06 07:06:09;;;;;;;;;;;;;;;6.42;60.32;101512.91;10335720;28;20369;-66
2023/04/06 07:11:11;;;;;;;;;;;;;;;6.47;60.30;101516.25;10334791;28;20400;-66
2023/04/06 07:16:13;;;;;;;;;;;;;;;6.49;60.83;101511.88;10335359;28;20384;-65
2023/04/06 07:21:16;;;;;;;;;;;;;;;6.49;59.86;101510.13;10300202;28;19936;-66
2023/04/06 07:26:18;;;;;;;;;;;;;;;6.54;60.46;101516.91;10335830;28;19926;-65
2023/04/06 07:31:20;;;;;;;;;;;;;;;7.20;60.15;101507.13;10334288;28;20385;-66
2023/04/06 07:36:22;;;;;;;;;;;;;;;7.12;59.98;101506.50;10335140;28;19926;-66
2023/04/06 07:41:25;;;;;;;;;;;;;;;7.24;59.62;101509.56;10335115;28;19925;-63
2023/04/06 07:46:27;;;;;;;;;;;;;;;7.59;58.79;101494.53;10334293;28;19925;-64
2023/04/06 07:51:30;;;;;;;;;;;;;;;7.70;59.09;101499.38;10334521;28;20308;-64
2023/04/06 07:56:33;;;;;;;;;;;;;;;7.87;59.55;101497.94;10334821;28;19926;-64
2023/04/06 08:01:35;;;;;;;;;;;;;;;7.72;59.31;101497.56;10334611;28;19933;-64
2023/04/06 08:06:37;;;;;;;;;;;;;;;7.41;60.14;101497.75;10334620;28;19926;-64
2023/04/06 08:11:40;;;;;;;;;;;;;;;7.44;61.12;101487.22;10337061;28;20297;-64
2023/04/06 08:16:42;;;;;;;;;;;;;;;7.55;59.86;101484.28;10342702;28;19926;-64
2023/04/06 08:21:45;;;;;;;;;;;;;;;7.75;60.89;101483.56;10342543;28;19929;-64
2023/04/06 08:26:48;;;;;;;;;;;;;;;8.00;60.12;101491.38;10324688;28;20344;-64
2023/04/06 08:31:50;;;;;;;;;;;;;;;8.06;60.16;101493.78;10342324;28;19926;-64
2023/04/06 08:36:52;;;;;;;;;;;;;;;8.31;59.89;101482.47;10342051;28;19926;-64
2023/04/06 08:41:56;;;;;;;;;;;;;;;8.66;59.55;101488.16;10341777;28;19930;-64
2023/04/06 08:46:59;;;;;;;;;;;;;;;8.78;59.04;101485.06;10339791;28;20389;-64
2023/04/06 08:52:01;;;;;;;;;;;;;;;8.87;59.59;101479.47;10324276;28;19933;-64
2023/04/06 08:57:04;;;;;;;;;;;;;;;9.06;58.50;101481.34;10324156;28;19926;-64
2023/04/06 09:02:06;;;;;;;;;;;;;;;9.37;57.64;101485.34;10323938;28;19991;-64
2023/04/06 09:07:09;;;;;;;;;;;;;;;9.73;56.76;101480.31;10340919;28;19980;-64
2023/04/06 09:12:12;;;;;;;;;;;;;;;9.79;56.31;101480.06;10323340;28;19925;-64
2023/04/06 09:17:24;;;;;;;;;;;;;;;10.59;54.38;101484.38;10338720;28;19925;-64
2023/04/06 09:22:34;;;;;;;;;;;;;;;11.17;52.80;101484.28;10339059;28;19933;-64
2023/04/06 09:27:37;;;;;;;;;;;;;;;11.19;52.04;101479.81;10339100;28;19929;-65
2023/04/06 09:32:49;;;;;;;;;;;;;;;11.27;53.25;101481.13;10338833;28;19949;-65
2023/04/06 09:37:52;;;;;;;;;;;;;;;10.95;53.00;101483.56;10321929;28;19981;-65
2023/04/06 09:42:57;;;;;;;;;;;;;;;11.97;53.37;101477.66;10337724;28;19929;-65
2023/04/06 09:47:59;;;;;;;;;;;;;;;11.62;53.17;101478.53;10338529;28;20293;-64
2023/04/06 09:53:02;;;;;;;;;;;;;;;12.14;52.46;101484.63;10321348;28;20046;-65
2023/04/06 09:58:05;;;;;;;;;;;;;;;11.47;53.64;101487.16;10321402;28;19984;-64
2023/04/06 10:03:22;;;;;;;;;;;;;;;11.36;53.88;101479.81;10300693;28;20386;-65
2023/04/06 10:08:27;;;;;;;;;;;;;;;12.26;51.40;101479.59;10298454;28;19932;-65
2023/04/06 10:13:32;;;;;;;;;;;;;;;11.73;52.09;101477.13;10322813;28;20054;-65
2023/04/06 10:18:34;;;;;;;;;;;;;;;11.94;53.46;101486.53;10332850;28;19929;-67
2023/04/06 10:23:47;;;;;;;;;;;;;;;12.29;52.20;101482.97;10332537;28;19973;-67
2023/04/06 10:28:50;;;;;;;;;;;;;;;12.43;52.46;101483.09;10319997;28;19930;-67
2023/04/06 10:33:59;;;;;;;;;;;;;;;12.20;52.76;101485.16;10336836;28;19925;-67
2023/04/06 10:39:03;;;;;;;;;;;;;;;11.65;52.53;101494.13;10319536;28;19948;-66
2023/04/06 10:44:05;;;;;;;;;;;;;;;12.85;53.06;101486.91;10336396;28;19926;-66
2023/04/06 10:49:12;;;;;;;;;;;;;;;12.63;52.76;101482.00;10319289;28;19948;-66
2023/04/06 10:54:14;;;;;;;;;;;;;;;13.16;52.16;101493.03;10318995;28;20436;-67
2023/04/06 10:59:20;;;;;;;;;;;;;;;12.96;53.13;101487.16;10318843;28;19934;-67
2023/04/06 11:04:23;;;;;;;;;;;;;;;12.87;53.04;101482.41;10335993;28;19926;-67
2023/04/06 11:09:31;;;;;;;;;;;;;;;12.90;52.95;101484.03;10335842;28;19937;-67
2023/04/06 11:14:33;;;;;;;;;;;;;;;13.67;52.27;101475.19;10336125;28;19932;-67
2023/04/06 11:19:35;;;;;;;;;;;;;;;12.07;54.80;101484.13;10335481;28;19937;-67
2023/04/06 11:24:38;;;;;;;;;;;;;;;12.95;54.22;101482.81;10318506;28;19932;-67
2023/04/06 11:29:40;;;;;;;;;;;;;;;12.61;55.01;101476.00;10333719;28;19933;-67
2023/04/06 11:34:43;;;;;;;;;;;;;;;12.92;54.66;101472.47;10335434;28;19926;-67
2023/04/06 11:39:45;;;;;;;;;;;;;;;12.59;56.97;101475.19;10333504;28;19926;-67
2023/04/06 11:44:49;;;;;;;;;;;;;;;12.94;58.49;101477.66;10353019;28;19971;-71
2023/04/06 11:49:51;;;;;;;;;;;;;;;12.43;60.75;101464.69;10337533;28;19926;-67
2023/04/06 11:54:54;;;;;;;;;;;;;;;12.14;62.10;101467.13;10334253;28;19926;-67
2023/04/06 11:59:56;;;;;;;;;;;;;;;11.39;65.89;101476.22;10317007;28;20324;-67
2023/04/06 12:04:58;;;;;;;;;;;;;;;11.14;67.01;101483.50;10334202;28;19980;-67
2023/04/06 12:10:01;;;;;;;;;;;;;;;11.31;69.13;101477.44;10334021;28;20400;-67
2023/04/06 12:15:04;;;;;;;;;;;;;;;10.90;68.60;101489.94;10313434;28;19930;-67
2023/04/06 12:20:07;;;;;;;;;;;;;;;10.35;71.55;101482.88;10330105;28;19984;-66
2023/04/06 12:25:26;;;;;;;;;;;;;;;10.42;73.92;101481.66;10333540;28;19949;-67
2023/04/06 12:30:28;;;;;;;;;;;;;;;9.88;77.31;101473.56;10334219;28;19926;-66
2023/04/06 12:35:33;;;;;;;;;;;;;;;10.15;78.32;101475.88;10334035;28;19952;-66
2023/04/06 12:40:39;;;;;;;;;;;;;;;9.97;81.52;101481.03;10316264;28;19925;-66
2023/04/06 12:45:41;;;;;;;;;;;;;;;10.13;80.94;101473.34;10333793;28;19932;-66
2023/04/06 12:50:44;;;;;;;;;;;;;;;9.75;83.44;101475.91;10333147;28;19926;-66
2023/04/06 12:55:46;;;;;;;;;;;;;;;9.48;85.61;101464.81;10333824;28;19933;-66
2023/04/06 13:00:50;;;;;;;;;;;;;;;9.56;85.38;101454.88;10340619;28;19949;-66
2023/04/06 13:05:52;;;;;;;;;;;;;;;9.38;87.22;101453.94;10319225;28;20348;-66
2023/04/06 13:10:54;;;;;;;;;;;;;;;9.49;89.99;101456.91;10340199;28;19972;-66
2023/04/06 13:16:01;;;;;;;;;;;;;;;9.46;91.16;101451.84;10340138;28;19930;-66
2023/04/06 13:21:04;;;;;;;;;;;;;;;9.21;90.36;101456.38;10340166;28;20028;-65
2023/04/06 13:26:07;;;;;;;;;;;;;;;9.44;93.91;101445.81;10332429;28;20431;-65
2023/04/06 13:31:09;;;;;;;;;;;;;;;9.36;96.87;101444.44;10306922;28;19934;-65
2023/04/06 13:36:12;;;;;;;;;;;;;;;9.40;94.75;101433.78;10330802;28;19973;-65
2023/04/06 13:41:20;;;;;;;;;;;;;;;9.21;99.32;101432.84;10339737;28;19925;-65
2023/04/06 13:46:23;;;;;;;;;;;;;;;9.57;100.00;101427.00;10337097;28;19929;-65
2023/04/06 13:51:26;;;;;;;;;;;;;;;9.37;100.00;101420.00;10321206;28;19926;-65
2023/04/06 13:56:29;;;;;;;;;;;;;;;9.46;99.83;101420.47;10321339;28;20381;-65
2023/04/06 14:01:31;;;;;;;;;;;;;;;9.02;100.00;101406.66;10339121;28;19926;-65
2023/04/06 14:06:33;;;;;;;;;;;;;;;9.01;100.00;101418.00;10331617;28;19926;-65
2023/04/06 14:11:37;;;;;;;;;;;;;;;9.14;100.00;101405.28;10335244;28;20415;-65
2023/04/06 14:16:40;;;;;;;;;;;;;;;8.81;100.00;101413.59;10321012;28;19929;-65
2023/04/06 14:21:43;;;;;;;;;;;;;;;8.79;100.00;101399.75;10322541;28;19992;-65
2023/04/06 14:26:46;;;;;;;;;;;;;;;9.07;100.00;101400.31;10296851;28;20001;-65
2023/04/06 14:31:48;;;;;;;;;;;;;;;9.11;100.00;101383.63;10296783;28;19926;-65
2023/04/06 14:36:50;;;;;;;;;;;;;;;8.99;100.00;101385.88;10318844;28;19929;-65
2023/04/06 14:41:53;;;;;;;;;;;;;;;8.93;100.00;101384.38;10335697;28;19926;-65
2023/04/06 14:46:55;;;;;;;;;;;;;;;8.78;100.00;101379.78;10335889;28;20384;-65
2023/04/06 14:51:58;;;;;;;;;;;;;;;8.60;100.00;101370.94;10334000;28;19925;-65
2023/04/06 14:57:01;;;;;;;;;;;;;;;8.61;100.00;101376.09;10302754;28;20373;-65
2023/04/06 15:02:04;;;;;;;;;;;;;;;8.51;100.00;101377.38;10335949;28;19930;-65
2023/04/06 15:07:06;;;;;;;;;;;;;;;8.67;100.00;101378.44;10336469;28;19984;-65
2023/04/06 15:12:08;;;;;;;;;;;;;;;8.53;100.00;101373.78;10335676;28;20414;-65
2023/04/06 15:17:10;;;;;;;;;;;;;;;8.08;100.00;101363.34;10336116;28;19932;-65
2023/04/06 15:22:13;;;;;;;;;;;;;;;8.32;100.00;101364.13;10333330;28;19926;-65
2023/04/06 15:27:15;;;;;;;;;;;;;;;8.59;100.00;101369.22;10336041;28;19945;-65
2023/04/06 15:32:17;;;;;;;;;;;;;;;8.66;100.00;101348.03;10332566;28;20664;-65
2023/04/06 15:37:20;;;;;;;;;;;;;;;8.58;100.00;101350.09;10329146;28;20490;-65
2023/04/06 15:42:22;;;;;;;;;;;;;;;8.38;100.00;101353.47;10332702;28;20274;-65
2023/04/06 15:47:24;;;;;;;;;;;;;;;8.41;100.00;101352.50;10331922;28;19925;-65
2023/04/06 15:52:26;;;;;;;;;;;;;;;7.97;100.00;101351.56;10330807;28;20008;-64
2023/04/06 15:57:29;;;;;;;;;;;;;;;8.23;100.00;101349.69;10322539;28;19926;-65
2023/04/06 16:02:31;;;;;;;;;;;;;;;8.39;100.00;101344.75;10331235;28;19965;-65
2023/04/06 16:07:34;;;;;;;;;;;;;;;8.50;100.00;101345.19;10332379;28;19926;-64
2023/04/06 16:12:36;;;;;;;;;;;;;;;7.95;100.00;101342.06;10304757;28;19926;-65
2023/04/06 16:17:38;;;;;;;;;;;;;;;8.08;100.00;101335.47;10327725;28;19934;-65
2023/04/06 16:22:41;;;;;;;;;;;;;;;8.35;100.00;101338.81;10327781;28;19980;-65
2023/04/06 16:27:43;;;;;;;;;;;;;;;8.41;100.00;101334.25;10301247;28;19926;-65
2023/04/06 16:32:46;;;;;;;;;;;;;;;8.14;100.00;101332.66;10323129;28;20568;-65
2023/04/06 16:37:48;;;;;;;;;;;;;;;8.04;100.00;101327.84;10313917;28;20373;-65
2023/04/06 16:42:51;;;;;;;;;;;;;;;8.09;100.00;101329.38;10312727;28;20013;-66
2023/04/06 16:47:53;;;;;;;;;;;;;;;8.00;100.00;101319.28;10338336;28;19929;-66
2023/04/06 16:52:55;;;;;;;;;;;;;;;7.75;100.00;101324.56;10339623;28;19953;-66
2023/04/06 16:57:57;;;;;;;;;;;;;;;7.97;100.00;101317.66;10320873;28;19973;-66
2023/04/06 17:03:00;;;;;;;;;;;;;;;8.13;100.00;101310.06;10384541;23;19925;-69
2023/04/06 17:08:02;;;;;;;;;;;;;;;7.92;100.00;101309.16;10379806;28;19926;-69
2023/04/06 17:13:05;;;;;;;;;;;;;;;7.84;100.00;101311.19;10380141;28;19933;-69
2023/04/06 17:18:08;;;;;;;;;;;;;;;7.95;100.00;101311.66;10361650;28;19926;-69
2023/04/06 17:23:10;;;;;;;;;;;;;;;8.07;100.00;101309.47;10364582;28;19926;-69
2023/04/06 17:28:12;;;;;;;;;;;;;;;8.01;100.00;101305.34;10370840;28;19972;-69
2023/04/06 17:33:17;;;;;;;;;;;;;;;7.70;100.00;101310.84;10372894;28;20300;-69
2023/04/06 17:38:19;;;;;;;;;;;;;;;7.76;100.00;101315.84;10379955;28;20426;-69
2023/04/06 17:43:22;;;;;;;;;;;;;;;7.50;100.00;101315.06;10362989;28;19951;-69
2023/04/06 17:48:25;;;;;;;;;;;;;;;7.90;100.00;101305.75;10361410;28;19973;-69
2023/04/06 17:53:33;;;;;;;;;;;;;;;7.69;100.00;101312.63;10377589;28;19926;-70
2023/04/06 17:58:35;;;;;;;;;;;;;;;7.57;100.00;101315.69;10377940;28;20371;-69
2023/04/06 18:03:37;;;;;;;;;;;;;;;7.80;100.00;101317.41;10377743;28;20411;-70
2023/04/06 18:08:40;;;;;;;;;;;;;;;8.10;100.00;101310.22;10379242;28;19929;-70
2023/04/06 18:13:42;;;;;;;;;;;;;;;8.27;100.00;101308.69;10377802;28;20397;-70
2023/04/06 18:18:44;;;;;;;;;;;;;;;7.89;100.00;101303.22;10367293;28;20339;-70
2023/04/06 18:23:48;;;;;;;;;;;;;;;8.17;100.00;101306.44;10374527;28;19977;-69
2023/04/06 18:28:50;;;;;;;;;;;;;;;7.90;100.00;101292.72;10371766;28;19932;-70
2023/04/06 18:33:52;;;;;;;;;;;;;;;7.99;100.00;101297.56;10372197;28;20372;-70
2023/04/06 18:38:55;;;;;;;;;;;;;;;7.88;100.00;101304.09;10376099;28;19925;-70
2023/04/06 18:43:58;;;;;;;;;;;;;;;7.79;100.00;101302.69;10373028;28;19933;-70
2023/04/06 18:49:00;;;;;;;;;;;;;;;7.85;100.00;101302.50;10337283;28;19964;-70
2023/04/06 18:54:02;;;;;;;;;;;;;;;7.68;100.00;101312.69;10352110;28;19932;-70
2023/04/06 18:59:05;;;;;;;;;;;;;;;7.89;100.00;101306.66;10373105;28;19925;-69
2023/04/06 19:04:07;;;;;;;;;;;;;;;7.90;100.00;101303.16;10352797;28;19925;-70
2023/04/06 19:09:09;;;;;;;;;;;;;;;7.70;100.00;101310.84;10372132;28;19977;-70
2023/04/06 19:14:11;;;;;;;;;;;;;;;7.74;100.00;101315.91;10349086;28;20373;-70
2023/04/06 19:19:14;;;;;;;;;;;;;;;7.77;100.00;101307.97;10337759;28;19926;-70
2023/04/06 19:24:16;;;;;;;;;;;;;;;8.05;100.00;101309.50;10376355;28;19925;-70
2023/04/06 19:29:19;;;;;;;;;;;;;;;7.81;100.00;101306.94;10372945;28;19929;-70
2023/04/06 19:34:21;;;;;;;;;;;;;;;7.82;100.00;101313.03;10372348;28;20289;-70
2023/04/06 19:39:25;;;;;;;;;;;;;;;7.75;100.00;101308.94;10366716;28;19929;-70
2023/04/06 19:44:27;;;;;;;;;;;;;;;7.72;100.00;101314.28;10373320;28;20002;-70
2023/04/06 19:49:29;;;;;;;;;;;;;;;7.89;100.00;101308.44;10372119;28;19995;-70
2023/04/06 19:54:31;;;;;;;;;;;;;;;7.93;100.00;101307.38;10373342;28;19925;-70
2023/04/06 19:59:34;;;;;;;;;;;;;;;8.00;100.00;101311.44;10372338;28;20335;-70
2023/04/06 20:04:36;;;;;;;;;;;;;;;7.74;100.00;101312.47;10354675;28;19929;-70
2023/04/06 20:09:38;;;;;;;;;;;;;;;7.78;100.00;101312.28;10348826;28;19926;-70
2023/04/06 20:14:41;;;;;;;;;;;;;;;7.96;100.00;101317.72;10363302;28;19933;-70
2023/04/06 20:19:43;;;;;;;;;;;;;;;7.93;100.00;101312.59;10371222;28;20380;-70
2023/04/06 20:24:45;;;;;;;;;;;;;;;7.81;100.00;101311.31;10375002;28;19926;-70
2023/04/06 20:29:47;;;;;;;;;;;;;;;7.90;100.00;101305.75;10356865;28;19925;-69
2023/04/06 20:34:51;;;;;;;;;;;;;;;7.99;100.00;101313.22;10374206;28;19926;-69
2023/04/06 20:39:53;;;;;;;;;;;;;;;8.18;100.00;101309.91;10374201;28;20400;-70
2023/04/06 20:44:56;;;;;;;;;;;;;;;8.07;100.00;101304.25;10368723;28;20388;-69
2023/04/06 20:49:59;;;;;;;;;;;;;;;8.03;100.00;101300.91;10353701;28;19929;-69
2023/04/06 20:55:01;;;;;;;;;;;;;;;8.27;100.00;101299.13;10373256;28;20336;-70
2023/04/06 21:00:04;;;;;;;;;;;;;;;8.23;100.00;101310.56;10371160;28;20261;-69
2023/04/06 21:05:07;;;;;;;;;;;;;;;8.16;100.00;101289.09;10372909;28;20395;-70
2023/04/06 21:10:10;;;;;;;;;;;;;;;8.41;100.00;101292.50;10373341;28;19932;-70
2023/04/06 21:15:12;;;;;;;;;;;;;;;8.44;100.00;101290.66;10373478;28;19929;-70
2023/04/06 21:20:14;;;;;;;;;;;;;;;8.43;100.00;101273.28;10378412;28;19984;-70
2023/04/06 21:25:16;;;;;;;;;;;;;;;8.53;100.00;101281.59;10379858;28;20316;-69
2023/04/06 21:30:19;;;;;;;;;;;;;;;8.61;100.00;101286.47;10379621;28;19932;-70
2023/04/06 21:35:23;;;;;;;;;;;;;;;8.69;100.00;101282.66;10380612;28;19972;-71
2023/04/06 21:40:25;;;;;;;;;;;;;;;8.70;100.00;101276.50;10379806;28;19979;-69
2023/04/06 21:45:27;;;;;;;;;;;;;;;8.63;100.00;101282.91;10379622;28;19926;-70
2023/04/06 21:50:30;;;;;;;;;;;;;;;8.82;100.00;101277.75;10362421;28;19987;-69
2023/04/06 21:55:32;;;;;;;;;;;;;;;8.79;100.00;101277.88;10379782;28;19929;-69
2023/04/06 22:00:34;;;;;;;;;;;;;;;8.79;100.00;101282.25;10379131;28;19933;-69
2023/04/06 22:05:37;;;;;;;;;;;;;;;8.80;100.00;101281.34;10379407;28;19933;-70
2023/04/06 22:10:39;;;;;;;;;;;;;;;8.73;100.00;101285.97;10377463;28;20324;-69
2023/04/06 22:15:41;;;;;;;;;;;;;;;8.84;100.00;101289.00;10379293;28;19929;-69
2023/04/06 22:20:44;;;;;;;;;;;;;;;8.88;100.00;101301.00;10377677;28;19930;-69
2023/04/06 22:25:47;;;;;;;;;;;;;;;8.72;100.00;101295.59;10378029;28;20316;-69
2023/04/06 22:30:49;;;;;;;;;;;;;;;8.59;100.00;101302.22;10359801;28;19930;-69
2023/04/06 22:35:51;;;;;;;;;;;;;;;8.78;100.00;101310.13;10378275;28;19925;-69
2023/04/06 22:40:54;;;;;;;;;;;;;;;8.74;100.00;101300.72;10377468;28;19936;-69
2023/04/06 22:45:56;;;;;;;;;;;;;;;8.95;100.00;101311.19;10378113;28;19980;-69
2023/04/06 22:50:58;;;;;;;;;;;;;;;8.78;100.00;101298.84;10376504;28;20320;-69
2023/04/06 22:56:01;;;;;;;;;;;;;;;8.78;100.00;101306.69;10376906;28;20297;-69
2023/04/06 23:01:03;;;;;;;;;;;;;;;8.77;100.00;101304.97;10377038;28;20032;-69
2023/04/06 23:06:05;;;;;;;;;;;;;;;9.02;100.00;101310.84;10375950;28;19925;-69
2023/04/06 23:11:07;;;;;;;;;;;;;;;8.86;100.00;101301.97;10358485;28;19925;-69
2023/04/06 23:16:10;;;;;;;;;;;;;;;8.98;100.00;101305.81;10376861;28;19926;-69
2023/04/06 23:21:12;;;;;;;;;;;;;;;8.94;100.00;101318.16;10375576;28;20372;-69
2023/04/06 23:26:14;;;;;;;;;;;;;;;8.89;100.00;101325.34;10375238;28;19936;-69
2023/04/06 23:31:16;;;;;;;;;;;;;;;8.80;100.00;101336.19;10375558;28;19972;-70
2023/04/06 23:36:19;;;;;;;;;;;;;;;8.98;100.00;101335.41;10374475;28;19929;-69
2023/04/06 23:41:21;;;;;;;;;;;;;;;8.86;100.00;101335.91;10375961;28;19926;-70
2023/04/06 23:46:23;;;;;;;;;;;;;;;8.68;100.00;101340.97;10375103;28;19929;-69
2023/04/06 23:51:26;;;;;;;;;;;;;;;8.82;100.00;101336.97;10375151;28;20008;-69
2023/04/06 23:56:28;;;;;;;;;;;;;;;8.80;100.00;101333.56;10375092;28;19926;-70
